Time;durP1;ratioP1;P1;durP2;ratioP2;P2;SDS_P1;SDS_P2;PMS_P1;PMS_P2;Temp;Humidity;BMP_temperature;BMP_pressure;BME280_temperature;BME280_humidity;BME280_pressure;Samples;Min_cycle;Max_cycle;Signal;HPM_P1;HPM_P2
2021/09/26 06:05:45;;;;;;;24.90;23.37;;;16.50;99.90;;;;;;5031268;23;20464;-73
2021/09/26 06:08:12;;;;;;;25.30;23.50;;;16.70;99.90;;;;;;4992750;28;21088;-73
2021/09/26 06:10:39;;;;;;;24.10;22.60;;;16.90;99.90;;;;;;4993290;28;20459;-74
2021/09/26 06:13:07;;;;;;;24.53;22.83;;;17.10;99.90;;;;;;4992925;28;20454;-73
2021/09/26 06:15:34;;;;;;;24.43;23.03;;;17.30;99.90;;;;;;4992692;28;20451;-73
2021/09/26 06:18:01;;;;;;;21.53;20.23;;;17.60;99.90;;;;;;4991331;28;20459;-74
2021/09/26 06:20:28;;;;;;;22.60;21.23;;;17.90;99.90;;;;;;4982162;28;20802;-73
2021/09/26 06:22:56;;;;;;;21.93;20.70;;;18.00;99.90;;;;;;4993401;28;20458;-73
2021/09/26 06:25:22;;;;;;;23.50;21.80;;;18.20;99.90;;;;;;4986557;28;20491;-73
2021/09/26 06:27:49;;;;;;;22.73;21.10;;;18.40;99.90;;;;;;4978933;28;20459;-72
2021/09/26 06:30:16;;;;;;;22.27;20.50;;;18.50;99.90;;;;;;4973514;28;20463;-73
2021/09/26 06:32:42;;;;;;;22.07;20.57;;;18.60;99.90;;;;;;4973296;28;20443;-73
2021/09/26 06:35:10;;;;;;;22.97;21.27;;;18.60;99.90;;;;;;4973382;28;20464;-74
2021/09/26 06:37:36;;;;;;;22.87;21.47;;;18.70;99.90;;;;;;4973308;28;20462;-73
2021/09/26 06:40:06;;;;;;;21.97;20.57;;;18.60;99.90;;;;;;4973144;28;20514;-73
2021/09/26 06:42:32;;;;;;;24.20;22.60;;;18.50;99.90;;;;;;4973078;28;20452;-74
2021/09/26 06:44:59;;;;;;;23.60;22.13;;;18.70;99.90;;;;;;4972964;28;20907;-73
2021/09/26 06:47:26;;;;;;;23.50;21.80;;;18.90;99.90;;;;;;4973054;28;20451;-73
2021/09/26 06:49:53;;;;;;;21.63;20.27;;;19.00;99.90;;;;;;4973207;28;20458;-73
2021/09/26 06:52:20;;;;;;;21.70;20.40;;;19.20;99.90;;;;;;4972872;28;20452;-73
2021/09/26 06:54:46;;;;;;;23.17;21.60;;;19.40;99.90;;;;;;4972902;28;21191;-73
2021/09/26 06:57:14;;;;;;;22.93;21.13;;;19.70;99.90;;;;;;4973052;28;20813;-73
2021/09/26 06:59:41;;;;;;;22.43;21.03;;;20.00;99.90;;;;;;4972727;28;20977;-74
2021/09/26 07:02:08;;;;;;;22.07;20.60;;;20.30;99.90;;;;;;4972873;28;20458;-74
2021/09/26 07:04:35;;;;;;;22.13;20.73;;;20.70;99.90;;;;;;4953099;29;20460;-73
2021/09/26 07:07:01;;;;;;;22.83;21.33;;;20.70;99.90;;;;;;4953088;29;20581;-73
2021/09/26 07:09:28;;;;;;;22.40;21.00;;;20.40;99.90;;;;;;4953378;29;20452;-74
2021/09/26 07:11:55;;;;;;;23.83;22.33;;;20.30;99.90;;;;;;4953422;29;20453;-74
2021/09/26 07:14:23;;;;;;;22.97;21.47;;;20.30;99.90;;;;;;4953368;29;20452;-73
2021/09/26 07:16:49;;;;;;;21.50;20.30;;;20.40;99.90;;;;;;4952769;29;20452;-73
2021/09/26 07:19:16;;;;;;;23.03;21.53;;;20.60;99.90;;;;;;4952910;29;20866;-73
2021/09/26 07:21:43;;;;;;;21.93;20.53;;;21.00;99.90;;;;;;4952945;29;20454;-72
2021/09/26 07:24:10;;;;;;;20.43;19.20;;;21.50;99.90;;;;;;4953000;28;20452;-73
2021/09/26 07:26:36;;;;;;;20.63;19.43;;;22.20;99.90;;;;;;4958451;28;20487;-73
2021/09/26 07:29:03;;;;;;;19.90;18.77;;;22.50;99.90;;;;;;4957768;28;20511;-74
2021/09/26 07:31:31;;;;;;;21.33;19.73;;;23.00;99.90;;;;;;4952606;29;20459;-73
2021/09/26 07:33:58;;;;;;;20.37;19.07;;;23.10;99.90;;;;;;4952385;29;20456;-74
2021/09/26 07:36:25;;;;;;;22.03;20.60;;;23.10;99.90;;;;;;4952933;29;20445;-74
2021/09/26 07:38:51;;;;;;;19.90;18.70;;;23.10;99.90;;;;;;4953026;29;20460;-75
2021/09/26 07:41:18;;;;;;;21.47;19.93;;;23.00;99.90;;;;;;4948982;29;20456;-74
2021/09/26 07:43:45;;;;;;;21.07;19.77;;;22.80;99.90;;;;;;4952385;29;20826;-74
2021/09/26 07:46:11;;;;;;;21.57;20.07;;;22.80;99.90;;;;;;4952629;29;20567;-73
2021/09/26 07:48:39;;;;;;;21.87;20.53;;;22.60;99.90;;;;;;4952732;29;20457;-74
2021/09/26 07:51:06;;;;;;;21.00;19.70;;;22.30;99.90;;;;;;4952806;29;20460;-74
2021/09/26 07:53:34;;;;;;;22.07;20.57;;;22.20;99.90;;;;;;4952692;29;20460;-74
2021/09/26 07:56:01;;;;;;;20.80;19.50;;;22.20;99.90;;;;;;4951893;28;21036;-74
2021/09/26 07:58:28;;;;;;;22.17;20.67;;;22.20;99.90;;;;;;4952490;29;20839;-74
2021/09/26 08:00:55;;;;;;;20.40;19.23;;;22.10;99.90;;;;;;4952585;29;20460;-74
2021/09/26 08:03:22;;;;;;;20.90;19.27;;;22.10;99.90;;;;;;4952583;29;20485;-74
2021/09/26 08:05:50;;;;;;;19.13;18.03;;;22.10;99.90;;;;;;4952188;29;20496;-74
2021/09/26 08:08:16;;;;;;;22.23;20.80;;;22.10;99.90;;;;;;4952640;29;20457;-74
2021/09/26 08:10:43;;;;;;;21.83;20.53;;;22.10;99.90;;;;;;4952450;29;20819;-74
2021/09/26 08:13:10;;;;;;;20.43;19.17;;;22.20;99.90;;;;;;4952388;29;20504;-74
2021/09/26 08:15:37;;;;;;;21.47;19.90;;;21.90;99.90;;;;;;4952568;29;20869;-75
2021/09/26 08:18:03;;;;;;;22.30;20.90;;;21.80;99.90;;;;;;4952199;29;20962;-74
2021/09/26 08:20:30;;;;;;;19.60;18.30;;;22.10;99.90;;;;;;4952240;29;20453;-74
2021/09/26 08:22:58;;;;;;;21.30;19.67;;;22.80;99.90;;;;;;4952069;29;20654;-74
2021/09/26 08:25:25;;;;;;;20.97;19.47;;;23.40;99.90;;;;;;4952341;29;20899;-74
2021/09/26 08:27:52;;;;;;;21.13;19.80;;;23.70;99.90;;;;;;4952496;29;20507;-75
2021/09/26 08:30:20;;;;;;;19.63;18.23;;;24.10;99.90;;;;;;4952201;29;20455;-74
2021/09/26 08:32:48;;;;;;;20.83;19.30;;;23.90;99.90;;;;;;4951953;29;20460;-75
2021/09/26 08:35:16;;;;;;;19.27;18.07;;;23.60;99.90;;;;;;4952091;29;20455;-74
2021/09/26 08:37:43;;;;;;;20.90;19.30;;;23.20;99.90;;;;;;4952124;29;20469;-75
2021/09/26 08:40:13;;;;;;;19.83;18.00;;;23.20;99.90;;;;;;4952367;29;20452;-75
2021/09/26 08:42:41;;;;;;;17.00;16.00;;;23.20;99.90;;;;;;4952215;29;20507;-74
2021/09/26 08:45:14;;;;;;;18.73;17.43;;;23.10;99.90;;;;;;4952383;29;20476;-75
2021/09/26 08:47:42;;;;;;;19.17;17.80;;;23.20;99.90;;;;;;4952192;29;20462;-75
2021/09/26 08:50:11;;;;;;;16.87;15.67;;;23.30;99.90;;;;;;4952274;29;20491;-75
2021/09/26 08:52:40;;;;;;;17.70;16.43;;;23.20;99.90;;;;;;4952263;29;20457;-74
2021/09/26 08:55:08;;;;;;;18.13;17.13;;;23.10;99.90;;;;;;4952075;29;20453;-74
2021/09/26 08:57:36;;;;;;;18.27;17.07;;;22.90;99.90;;;;;;4951941;29;20456;-74
2021/09/26 09:00:03;;;;;;;19.10;17.80;;;22.80;99.90;;;;;;4951937;29;20593;-74
2021/09/26 09:02:30;;;;;;;17.70;16.40;;;22.80;99.90;;;;;;4951849;29;20872;-74
2021/09/26 09:04:57;;;;;;;19.87;18.47;;;22.80;99.90;;;;;;4951496;29;21001;-73
2021/09/26 09:07:23;;;;;;;18.33;17.17;;;22.90;99.90;;;;;;4953132;28;20870;-74
2021/09/26 09:09:52;;;;;;;17.70;16.70;;;22.80;99.90;;;;;;4955575;29;20479;-74
2021/09/26 09:12:26;;;;;;;18.20;17.17;;;22.80;99.90;;;;;;4955236;29;20452;-75
2021/09/26 09:14:56;;;;;;;17.80;16.60;;;22.80;99.90;;;;;;4955568;29;20457;-74
2021/09/26 09:17:32;;;;;;;17.77;16.50;;;22.80;99.90;;;;;;4955630;29;20551;-74
2021/09/26 09:20:13;;;;;;;18.57;17.47;;;22.80;99.90;;;;;;4955313;29;20452;-74
2021/09/26 09:22:41;;;;;;;18.50;17.27;;;22.60;99.90;;;;;;4955324;29;20511;-73
2021/09/26 09:25:08;;;;;;;19.10;18.00;;;22.60;99.90;;;;;;4955314;29;20491;-74
2021/09/26 09:27:35;;;;;;;18.87;17.47;;;22.70;99.90;;;;;;4955039;29;20519;-73
2021/09/26 09:30:04;;;;;;;17.90;16.30;;;22.80;99.90;;;;;;4955215;29;20460;-74
2021/09/26 09:32:31;;;;;;;18.70;17.47;;;23.00;99.90;;;;;;4955047;29;20468;-75
2021/09/26 09:34:58;;;;;;;17.87;16.67;;;23.20;99.90;;;;;;4954776;29;20950;-74
2021/09/26 09:37:26;;;;;;;18.43;17.37;;;23.30;99.90;;;;;;4955391;29;20457;-73
2021/09/26 09:40:08;;;;;;;18.00;17.00;;;23.40;99.90;;;;;;4955127;29;20511;-73
2021/09/26 09:42:40;;;;;;;18.07;17.07;;;23.60;99.90;;;;;;4955129;29;20460;-74
2021/09/26 09:45:17;;;;;;;18.80;17.80;;;23.90;99.90;;;;;;4955081;29;20459;-73
2021/09/26 09:48:02;;;;;;;18.80;17.80;;;24.10;99.90;;;;;;4954801;29;20464;-74
2021/09/26 09:50:47;;;;;;;18.53;17.53;;;24.00;99.90;;;;;;4954750;29;20461;-73
2021/09/26 09:53:30;;;;;;;18.70;17.70;;;24.00;99.90;;;;;;4954692;29;20812;-74
2021/09/26 09:56:03;;;;;;;19.70;18.43;;;23.80;99.90;;;;;;4954628;29;20828;-73
2021/09/26 09:58:35;;;;;;;18.10;17.10;;;23.70;99.90;;;;;;4954581;29;20452;-74
2021/09/26 10:01:06;;;;;;;19.90;18.70;;;23.70;99.90;;;;;;4954506;29;20475;-73
2021/09/26 10:03:51;;;;;;;20.10;18.80;;;23.60;99.90;;;;;;4952648;29;20504;-74
2021/09/26 10:06:37;;;;;;;20.10;18.90;;;23.50;99.90;;;;;;4954233;29;20885;-74
2021/09/26 10:09:20;;;;;;;19.90;18.77;;;23.30;99.90;;;;;;4954372;29;20590;-74
2021/09/26 10:11:49;;;;;;;21.03;19.83;;;23.40;99.90;;;;;;4954098;29;20476;-73
2021/09/26 10:14:18;;;;;;;21.57;20.27;;;22.90;99.90;;;;;;4952551;29;21006;-73
2021/09/26 10:16:46;;;;;;;23.50;22.00;;;22.50;99.90;;;;;;4954128;29;20448;-72
2021/09/26 10:19:13;;;;;;;22.80;21.50;;;22.10;99.90;;;;;;4953489;28;20457;-71
2021/09/26 10:21:40;;;;;;;26.80;25.20;;;21.90;99.90;;;;;;4954273;29;20512;-72
2021/09/26 10:24:08;;;;;;;26.40;24.90;;;21.40;99.90;;;;;;4954132;29;20488;-73
2021/09/26 10:26:38;;;;;;;27.10;25.40;;;21.20;99.90;;;;;;4953963;29;20487;-73
2021/09/26 10:29:07;;;;;;;25.23;23.63;;;21.10;99.90;;;;;;4953837;29;20503;-76
2021/09/26 10:31:35;;;;;;;26.33;24.30;;;21.00;99.90;;;;;;4953929;29;20573;-74
2021/09/26 10:34:04;;;;;;;25.53;23.93;;;20.80;99.90;;;;;;4952043;29;20523;-75
2021/09/26 10:36:32;;;;;;;24.17;22.67;;;20.80;99.90;;;;;;4953962;29;20806;-77
2021/09/26 10:39:00;;;;;;;22.73;21.03;;;20.70;99.90;;;;;;4953632;29;20939;-73
2021/09/26 10:41:27;;;;;;;25.07;23.30;;;20.80;99.90;;;;;;4953811;29;20656;-73
2021/09/26 10:43:54;;;;;;;22.80;21.47;;;20.80;99.90;;;;;;4953862;29;20461;-74
2021/09/26 10:46:26;;;;;;;24.47;22.87;;;20.90;99.90;;;;;;4953639;29;20491;-74
2021/09/26 10:49:15;;;;;;;21.47;20.17;;;21.10;99.90;;;;;;4953766;29;20453;-74
2021/09/26 10:51:48;;;;;;;21.63;20.23;;;21.40;99.90;;;;;;4953412;29;20552;-74
2021/09/26 10:54:37;;;;;;;22.17;20.77;;;21.70;99.90;;;;;;4953607;29;20495;-75
2021/09/26 10:57:24;;;;;;;22.60;21.10;;;21.90;99.90;;;;;;4947688;29;20463;-75
2021/09/26 10:59:53;;;;;;;21.43;20.23;;;22.10;99.90;;;;;;4953542;29;20456;-74
2021/09/26 11:02:39;;;;;;;22.40;20.83;;;22.20;99.90;;;;;;4953393;29;20453;-74
2021/09/26 11:05:23;;;;;;;21.20;19.80;;;22.20;99.90;;;;;;4953202;29;20535;-74
2021/09/26 11:07:51;;;;;;;22.90;21.10;;;22.30;99.90;;;;;;4952751;29;20491;-74
2021/09/26 11:10:18;;;;;;;22.13;20.63;;;22.00;99.90;;;;;;4953050;29;20453;-74
2021/09/26 11:12:46;;;;;;;21.90;20.57;;;21.80;99.90;;;;;;4953102;29;20867;-74
2021/09/26 11:15:16;;;;;;;21.70;20.50;;;21.60;99.90;;;;;;4953020;29;20555;-74
2021/09/26 11:17:45;;;;;;;21.30;20.00;;;21.40;99.90;;;;;;4953016;29;20460;-75
2021/09/26 11:20:35;;;;;;;21.87;20.20;;;21.30;99.90;;;;;;4952742;29;21029;-75
2021/09/26 11:23:34;;;;;;;21.67;20.33;;;21.20;99.90;;;;;;4952378;29;20467;-74
2021/09/26 11:26:06;;;;;;;21.03;19.43;;;21.10;99.90;;;;;;4952623;29;20683;-74
2021/09/26 11:28:34;;;;;;;21.50;20.30;;;21.20;99.90;;;;;;4952632;29;20499;-74
2021/09/26 11:31:02;;;;;;;21.90;20.60;;;21.20;99.90;;;;;;4951847;28;20933;-74
2021/09/26 11:33:54;;;;;;;24.93;23.30;;;21.20;99.90;;;;;;4952694;29;20487;-72
2021/09/26 11:36:24;;;;;;;24.80;23.20;;;21.10;99.90;;;;;;4952679;29;21019;-73
2021/09/26 11:38:51;;;;;;;25.63;24.23;;;20.90;99.90;;;;;;4952739;29;20511;-73
2021/09/26 11:41:34;;;;;;;27.60;26.00;;;20.80;99.90;;;;;;4952690;29;20467;-73
2021/09/26 11:44:02;;;;;;;28.20;26.50;;;20.70;99.90;;;;;;4952577;29;20467;-73
2021/09/26 11:46:28;;;;;;;27.93;26.13;;;20.50;99.90;;;;;;4952201;29;20603;-74
2021/09/26 11:49:00;;;;;;;30.17;28.43;;;20.30;99.90;;;;;;4952522;29;20452;-74
2021/09/26 11:51:29;;;;;;;28.60;26.90;;;20.20;99.90;;;;;;4952207;29;20452;-74
2021/09/26 11:53:56;;;;;;;27.37;25.77;;;20.10;99.90;;;;;;4952579;29;20460;-75
2021/09/26 11:56:26;;;;;;;28.03;26.00;;;20.10;99.90;;;;;;4952708;29;20445;-75
2021/09/26 11:58:59;;;;;;;25.77;24.10;;;20.00;99.90;;;;;;4952863;29;20556;-74
2021/09/26 12:01:31;;;;;;;24.83;23.43;;;20.10;99.90;;;;;;4952513;29;20460;-75
2021/09/26 12:04:18;;;;;;;23.23;21.70;;;20.10;99.90;;;;;;4952343;29;20491;-75
2021/09/26 12:06:49;;;;;;;22.67;21.23;;;20.30;99.90;;;;;;4951918;29;20496;-76
2021/09/26 12:09:33;;;;;;;24.07;22.23;;;20.50;99.90;;;;;;4952307;29;20483;-76
2021/09/26 12:12:00;;;;;;;25.07;23.43;;;20.60;99.90;;;;;;4952206;29;20457;-75
2021/09/26 12:14:30;;;;;;;24.27;22.70;;;20.70;99.90;;;;;;4952215;29;20542;-76
2021/09/26 12:16:57;;;;;;;23.60;22.00;;;20.80;99.90;;;;;;4951972;29;20488;-76
2021/09/26 12:19:24;;;;;;;22.97;21.37;;;21.10;99.90;;;;;;4952400;29;20464;-73
2021/09/26 12:22:02;;;;;;;23.07;21.47;;;21.20;99.90;;;;;;4952331;29;20444;-76
2021/09/26 12:24:38;;;;;;;22.77;21.27;;;21.50;99.90;;;;;;4950374;29;20456;-76
2021/09/26 12:27:26;;;;;;;21.97;20.50;;;22.10;99.90;;;;;;4952141;29;20488;-76
2021/09/26 12:29:58;;;;;;;21.93;20.63;;;23.20;99.90;;;;;;4952329;29;20801;-75
2021/09/26 12:32:27;;;;;;;21.10;19.80;;;23.90;99.90;;;;;;4952333;29;20879;-76
2021/09/26 12:34:55;;;;;;;21.87;20.37;;;24.50;99.90;;;;;;4952056;29;20456;-76
2021/09/26 12:37:25;;;;;;;20.33;19.23;;;24.90;99.90;;;;;;4952169;29;20476;-73
2021/09/26 12:39:57;;;;;;;19.97;18.87;;;25.10;99.90;;;;;;4952243;29;20503;-76
2021/09/26 12:42:27;;;;;;;21.73;20.43;;;24.80;99.90;;;;;;4953442;28;20464;-75
2021/09/26 12:44:54;;;;;;;19.23;18.07;;;24.20;99.90;;;;;;4956053;29;20456;-76
2021/09/26 12:47:25;;;;;;;20.60;19.30;;;24.20;99.90;;;;;;4955911;29;20492;-76
2021/09/26 12:49:53;;;;;;;20.87;19.80;;;24.40;99.90;;;;;;4955950;29;20868;-75
2021/09/26 12:52:24;;;;;;;20.70;19.40;;;24.50;99.90;;;;;;4955505;29;20456;-76
2021/09/26 12:54:57;;;;;;;21.80;20.50;;;24.10;99.90;;;;;;4955507;29;20467;-75
2021/09/26 12:57:26;;;;;;;21.33;20.13;;;23.90;99.90;;;;;;4955926;29;20455;-75
2021/09/26 13:00:16;;;;;;;19.90;18.90;;;23.60;99.90;;;;;;4955525;29;20456;-75
2021/09/26 13:02:48;;;;;;;18.87;17.77;;;23.60;99.90;;;;;;4955324;29;20535;-75
2021/09/26 13:05:28;;;;;;;20.77;19.57;;;23.60;99.90;;;;;;4955081;29;20914;-75
2021/09/26 13:08:05;;;;;;;20.97;19.27;;;23.70;99.90;;;;;;4955525;29;20510;-75
2021/09/26 13:10:34;;;;;;;19.47;18.40;;;23.80;99.90;;;;;;4955273;29;20476;-76
2021/09/26 13:13:11;;;;;;;18.20;17.17;;;23.90;99.90;;;;;;4954956;29;20452;-75
2021/09/26 13:15:41;;;;;;;18.90;17.80;;;24.00;99.90;;;;;;4955325;29;20617;-76
2021/09/26 13:18:19;;;;;;;20.80;19.60;;;24.00;99.90;;;;;;4955493;29;20449;-75
2021/09/26 13:20:46;;;;;;;19.10;18.00;;;24.00;99.90;;;;;;4955082;29;20538;-75
2021/09/26 13:23:25;;;;;;;19.43;18.33;;;23.90;99.90;;;;;;4954879;29;20453;-75
2021/09/26 13:25:56;;;;;;;19.30;18.30;;;24.10;99.90;;;;;;4955165;29;20458;-75
2021/09/26 13:28:24;;;;;;;19.17;17.90;;;24.10;99.90;;;;;;4955004;29;21014;-74
2021/09/26 13:31:03;;;;;;;20.30;19.10;;;24.10;99.90;;;;;;4954674;29;21017;-74
2021/09/26 13:33:34;;;;;;;19.13;18.03;;;24.10;99.90;;;;;;4954593;29;20467;-75
2021/09/26 13:36:08;;;;;;;19.80;18.80;;;24.20;99.90;;;;;;4954679;29;20583;-75
2021/09/26 13:38:35;;;;;;;19.13;18.00;;;24.40;99.90;;;;;;4954801;29;20449;-75
2021/09/26 13:41:29;;;;;;;18.27;17.37;;;24.60;99.90;;;;;;4954412;29;21134;-75
2021/09/26 13:43:59;;;;;;;18.80;17.60;;;24.90;99.90;;;;;;4952935;29;20463;-74
2021/09/26 13:46:26;;;;;;;18.40;17.40;;;24.70;99.90;;;;;;4952963;29;20453;-72
2021/09/26 13:48:53;;;;;;;18.53;17.63;;;24.80;99.90;;;;;;4954861;29;20507;-74
2021/09/26 13:51:20;;;;;;;18.50;17.40;;;24.90;99.90;;;;;;4954765;29;20460;-74
2021/09/26 13:53:48;;;;;;;19.47;18.37;;;25.20;99.90;;;;;;4953507;28;20977;-74
2021/09/26 13:56:16;;;;;;;18.10;17.10;;;25.30;99.90;;;;;;4954854;29;20508;-72
2021/09/26 13:58:43;;;;;;;17.30;16.50;;;25.70;99.90;;;;;;4954576;29;20962;-73
2021/09/26 14:01:13;;;;;;;18.40;17.40;;;25.90;99.90;;;;;;4954930;29;20489;-73
2021/09/26 14:03:40;;;;;;;19.80;18.47;;;25.90;99.90;;;;;;4954438;29;21024;-73
2021/09/26 14:06:06;;;;;;;18.17;17.27;;;26.20;99.90;;;;;;4954806;29;20898;-74
2021/09/26 14:08:33;;;;;;;18.70;17.50;;;26.20;99.90;;;;;;4954320;29;20514;-73
2021/09/26 14:11:01;;;;;;;18.07;17.17;;;26.30;99.90;;;;;;4954531;29;20514;-73
2021/09/26 14:13:30;;;;;;;18.90;18.03;;;26.40;99.90;;;;;;4954168;29;20488;-73
2021/09/26 14:15:58;;;;;;;19.13;18.13;;;26.50;99.90;;;;;;4954319;29;20487;-73
2021/09/26 14:18:24;;;;;;;18.73;17.63;;;26.70;99.90;;;;;;4954385;29;20587;-73
2021/09/26 14:20:51;;;;;;;18.63;17.63;;;26.80;99.90;;;;;;4954343;29;20468;-73
2021/09/26 14:23:18;;;;;;;16.57;15.77;;;26.60;99.90;;;;;;4954208;29;20448;-73
2021/09/26 14:25:45;;;;;;;18.93;18.00;;;26.70;99.90;;;;;;4954067;29;20519;-73
2021/09/26 14:28:13;;;;;;;18.60;17.40;;;26.70;99.90;;;;;;4953769;29;20524;-73
2021/09/26 14:30:41;;;;;;;18.10;17.20;;;26.40;99.90;;;;;;4954099;29;20515;-73
2021/09/26 14:33:09;;;;;;;18.20;17.30;;;26.30;99.90;;;;;;4954197;29;20987;-73
2021/09/26 14:35:36;;;;;;;18.37;16.93;;;26.30;99.90;;;;;;4953945;29;20448;-73
2021/09/26 14:38:05;;;;;;;17.20;16.40;;;26.40;99.90;;;;;;4953710;29;20457;-73
2021/09/26 14:40:32;;;;;;;17.83;16.93;;;26.20;99.90;;;;;;4953573;29;20794;-74
2021/09/26 14:42:59;;;;;;;18.13;17.17;;;26.00;99.90;;;;;;4953692;29;20461;-73
2021/09/26 14:45:28;;;;;;;18.07;17.17;;;26.00;99.90;;;;;;4953775;29;20462;-73
2021/09/26 14:47:57;;;;;;;17.23;16.33;;;25.90;99.90;;;;;;4953562;29;20492;-73
2021/09/26 14:50:24;;;;;;;15.03;14.43;;;25.90;99.90;;;;;;4953837;29;20511;-73
2021/09/26 14:52:51;;;;;;;17.73;16.73;;;25.90;99.90;;;;;;4953803;29;20456;-73
2021/09/26 14:55:20;;;;;;;16.47;15.73;;;25.90;99.90;;;;;;4953618;29;20560;-73
2021/09/26 14:57:48;;;;;;;16.80;16.00;;;25.90;99.20;;;;;;4953736;29;21055;-73
2021/09/26 15:00:16;;;;;;;15.97;15.27;;;25.90;99.20;;;;;;4953452;29;20460;-73
2021/09/26 15:02:43;;;;;;;16.97;16.10;;;25.70;99.20;;;;;;4953210;29;20838;-73
2021/09/26 15:05:13;;;;;;;15.87;15.13;;;25.90;99.30;;;;;;4953178;28;20485;-74
2021/09/26 15:07:40;;;;;;;19.50;18.33;;;26.00;98.70;;;;;;4953240;29;20488;-74
2021/09/26 15:10:09;;;;;;;17.97;17.17;;;25.70;99.90;;;;;;4953484;29;20463;-73
2021/09/26 15:12:36;;;;;;;20.07;18.87;;;25.30;99.90;;;;;;4953542;29;20465;-73
2021/09/26 15:15:04;;;;;;;18.80;17.90;;;24.80;99.90;;;;;;4953431;29;20464;-73
2021/09/26 15:17:31;;;;;;;19.87;18.77;;;24.70;99.90;;;;;;4953278;29;20456;-73
2021/09/26 15:19:57;;;;;;;18.00;17.10;;;24.40;99.90;;;;;;4953286;29;20866;-73
2021/09/26 15:22:26;;;;;;;19.80;18.70;;;24.10;99.90;;;;;;4953554;29;20460;-73
2021/09/26 15:24:52;;;;;;;18.93;17.97;;;23.80;99.90;;;;;;4953649;29;20469;-73
2021/09/26 15:27:19;;;;;;;18.50;17.50;;;23.70;99.90;;;;;;4953134;29;20990;-73
2021/09/26 15:29:46;;;;;;;20.20;19.00;;;23.60;99.90;;;;;;4953214;29;20486;-74
2021/09/26 15:32:13;;;;;;;20.40;19.10;;;23.50;99.90;;;;;;4952970;29;20825;-73
2021/09/26 15:34:41;;;;;;;18.43;17.27;;;23.40;99.90;;;;;;4953191;29;20457;-73
2021/09/26 15:37:08;;;;;;;18.40;17.50;;;23.20;99.90;;;;;;4953171;29;20496;-73
2021/09/26 15:39:36;;;;;;;19.80;18.70;;;23.10;99.90;;;;;;4953028;29;20542;-73
2021/09/26 15:42:04;;;;;;;18.13;17.20;;;22.70;99.90;;;;;;4952695;29;20460;-73
2021/09/26 15:44:33;;;;;;;18.67;17.60;;;22.60;99.90;;;;;;4952762;29;20718;-73
2021/09/26 15:47:00;;;;;;;17.53;16.60;;;22.50;99.90;;;;;;4952672;29;20983;-73
2021/09/26 15:49:29;;;;;;;17.80;16.90;;;22.40;99.90;;;;;;4952936;29;20856;-73
2021/09/26 15:51:57;;;;;;;17.97;17.00;;;22.30;99.90;;;;;;4952716;29;20930;-73
2021/09/26 15:54:23;;;;;;;17.70;16.70;;;22.20;99.90;;;;;;4952881;29;20507;-73
2021/09/26 15:56:52;;;;;;;17.47;16.47;;;22.00;99.90;;;;;;4952661;29;20519;-73
2021/09/26 15:59:18;;;;;;;18.60;17.60;;;22.00;99.90;;;;;;4952630;29;20452;-73
2021/09/26 16:01:45;;;;;;;17.77;16.67;;;22.00;99.90;;;;;;4952695;29;20452;-73
2021/09/26 16:04:14;;;;;;;18.90;17.70;;;22.00;99.90;;;;;;4952378;29;20535;-72
2021/09/26 16:06:40;;;;;;;18.07;17.00;;;21.80;99.90;;;;;;4952439;29;20484;-73
2021/09/26 16:09:07;;;;;;;17.60;16.50;;;21.70;99.90;;;;;;4952682;29;20904;-73
2021/09/26 16:11:35;;;;;;;18.43;17.43;;;21.60;99.90;;;;;;4952502;29;20452;-73
2021/09/26 16:14:03;;;;;;;17.93;16.97;;;21.50;99.90;;;;;;4952646;29;20456;-73
2021/09/26 16:16:30;;;;;;;20.17;18.93;;;21.40;99.90;;;;;;4952117;29;20476;-74
2021/09/26 16:18:57;;;;;;;18.37;17.37;;;21.50;99.90;;;;;;4952224;29;20452;-74
2021/09/26 16:21:24;;;;;;;18.63;17.63;;;21.60;99.90;;;;;;4952994;29;20813;-73
2021/09/26 16:23:51;;;;;;;18.70;17.60;;;21.50;99.90;;;;;;4952729;29;20460;-73
2021/09/26 16:26:18;;;;;;;19.10;18.00;;;21.50;99.90;;;;;;4964864;28;20483;-73
2021/09/26 16:28:45;;;;;;;18.67;17.77;;;21.50;99.90;;;;;;4971674;28;20487;-74
2021/09/26 16:31:14;;;;;;;19.80;18.60;;;21.40;99.90;;;;;;4971926;28;20455;-74
2021/09/26 16:33:44;;;;;;;20.13;18.93;;;21.40;99.90;;;;;;4971811;28;20459;-74
2021/09/26 16:36:14;;;;;;;17.67;16.73;;;21.50;99.90;;;;;;4971822;28;20472;-73
2021/09/26 16:38:41;;;;;;;19.43;18.37;;;21.40;99.90;;;;;;4971889;28;20455;-73
2021/09/26 16:41:08;;;;;;;19.27;18.27;;;21.40;99.90;;;;;;4971810;28;20802;-73
2021/09/26 16:43:36;;;;;;;20.97;19.80;;;21.30;99.90;;;;;;4971462;28;20444;-73
2021/09/26 16:46:03;;;;;;;21.10;19.90;;;21.30;99.90;;;;;;4971603;28;20900;-73
2021/09/26 16:48:33;;;;;;;19.77;18.67;;;21.20;99.90;;;;;;4971614;28;20625;-73
2021/09/26 16:51:01;;;;;;;20.77;19.57;;;21.10;99.90;;;;;;4971731;28;20459;-73
2021/09/26 16:53:29;;;;;;;22.07;20.87;;;21.10;99.90;;;;;;4971358;28;20457;-73
2021/09/26 16:55:56;;;;;;;19.63;18.60;;;21.00;99.90;;;;;;4971521;28;20459;-73
2021/09/26 16:58:23;;;;;;;21.93;20.43;;;21.00;99.90;;;;;;4971712;28;20474;-73
2021/09/26 17:00:50;;;;;;;21.07;19.83;;;21.00;99.90;;;;;;4971356;28;20460;-73
2021/09/26 17:03:17;;;;;;;20.60;19.30;;;20.90;99.90;;;;;;4958983;28;20504;-73
2021/09/26 17:05:46;;;;;;;20.80;19.50;;;21.00;99.90;;;;;;4951954;29;20515;-72
2021/09/26 17:08:13;;;;;;;20.80;19.60;;;20.90;99.90;;;;;;4952192;29;20541;-72
2021/09/26 17:10:40;;;;;;;21.83;20.57;;;20.90;99.90;;;;;;4952348;29;20453;-73
2021/09/26 17:13:07;;;;;;;21.37;20.17;;;20.90;99.90;;;;;;4952328;29;20460;-73
2021/09/26 17:15:36;;;;;;;21.30;20.00;;;20.80;99.90;;;;;;4952187;29;20821;-73
2021/09/26 17:18:06;;;;;;;21.30;20.00;;;20.80;99.90;;;;;;4962859;28;20938;-73
2021/09/26 17:20:38;;;;;;;20.97;19.80;;;20.90;99.90;;;;;;4969261;28;20461;-73
2021/09/26 17:23:08;;;;;;;20.77;19.47;;;20.80;99.90;;;;;;4971334;28;20950;-73
2021/09/26 17:25:35;;;;;;;22.03;20.63;;;20.80;99.90;;;;;;4966533;28;20460;-73
2021/09/26 17:28:02;;;;;;;22.53;21.23;;;20.80;99.90;;;;;;4951405;28;20636;-73
2021/09/26 17:30:31;;;;;;;20.70;19.50;;;20.70;99.90;;;;;;4954302;29;20523;-73
2021/09/26 17:33:00;;;;;;;21.07;19.77;;;20.70;99.90;;;;;;4957170;28;20456;-72
2021/09/26 17:35:28;;;;;;;21.13;19.90;;;20.70;99.90;;;;;;4974543;28;20467;-72
2021/09/26 17:37:55;;;;;;;22.13;20.63;;;20.70;99.90;;;;;;4962733;28;20456;-73
2021/09/26 17:40:26;;;;;;;22.47;21.17;;;20.70;99.90;;;;;;4967221;28;20456;-73
2021/09/26 17:42:55;;;;;;;20.90;19.70;;;20.70;99.90;;;;;;4973912;28;20455;-73
2021/09/26 17:45:23;;;;;;;23.23;21.77;;;20.60;99.90;;;;;;4972638;28;20740;-72
2021/09/26 17:47:50;;;;;;;24.50;22.80;;;20.40;99.90;;;;;;4972230;28;20989;-73
2021/09/26 17:50:18;;;;;;;23.80;22.43;;;20.20;99.90;;;;;;4969778;28;20451;-73
2021/09/26 17:52:46;;;;;;;25.50;23.50;;;20.10;99.90;;;;;;4965770;28;20456;-72
2021/09/26 17:55:14;;;;;;;26.37;24.77;;;19.90;99.90;;;;;;4962790;28;20455;-72
2021/09/26 17:57:42;;;;;;;25.87;23.87;;;19.70;99.90;;;;;;4954823;28;20955;-72
2021/09/26 18:00:14;;;;;;;24.77;23.17;;;19.60;99.90;;;;;;4956355;28;20445;-72
2021/09/26 18:02:41;;;;;;;25.20;23.60;;;19.50;99.90;;;;;;4973569;28;20546;-72
2021/09/26 18:05:10;;;;;;;26.10;24.40;;;19.50;99.90;;;;;;4972909;28;20479;-72
2021/09/26 18:07:37;;;;;;;28.10;26.20;;;19.30;99.90;;;;;;4973170;28;20456;-73
2021/09/26 18:10:07;;;;;;;26.90;25.30;;;19.30;99.90;;;;;;4973516;28;20492;-73
2021/09/26 18:12:33;;;;;;;26.50;24.60;;;19.20;99.90;;;;;;4973735;28;20805;-73
2021/09/26 18:15:02;;;;;;;26.90;25.10;;;19.10;99.90;;;;;;4973840;28;20452;-73
2021/09/26 18:17:29;;;;;;;25.73;23.93;;;19.10;99.90;;;;;;4973045;28;20464;-73
2021/09/26 18:19:56;;;;;;;23.10;21.70;;;19.10;99.90;;;;;;4973158;28;20536;-72
2021/09/26 18:22:23;;;;;;;24.47;22.77;;;19.10;99.90;;;;;;4958457;28;20452;-72
2021/09/26 18:24:50;;;;;;;22.53;21.07;;;19.20;99.90;;;;;;4954548;29;20459;-72
2021/09/26 18:27:17;;;;;;;24.87;23.00;;;19.20;99.90;;;;;;4966455;28;20936;-72
2021/09/26 18:29:45;;;;;;;25.23;23.33;;;19.30;99.90;;;;;;4965914;28;20831;-73
2021/09/26 18:32:14;;;;;;;24.00;22.47;;;19.30;99.90;;;;;;4954237;29;20508;-73
2021/09/26 18:34:41;;;;;;;24.03;22.43;;;19.40;99.90;;;;;;4953817;28;20979;-73
2021/09/26 18:37:08;;;;;;;24.90;23.00;;;19.40;99.90;;;;;;4961598;28;20948;-73
2021/09/26 18:39:35;;;;;;;24.60;22.57;;;19.40;99.90;;;;;;4971457;28;20456;-73
2021/09/26 18:42:01;;;;;;;24.83;23.13;;;19.40;99.90;;;;;;4973326;28;20494;-73
2021/09/26 18:44:28;;;;;;;24.30;22.63;;;19.40;99.90;;;;;;4973495;28;20448;-74